createdAt,value
2023-01-29T00:03:40.427Z,0.8
2023-01-29T00:15:40.436Z,0.8
2023-01-29T00:27:40.487Z,0.8
2023-01-29T00:39:47.684Z,0.8
2023-01-29T00:51:40.559Z,0.8
2023-01-29T01:03:40.443Z,0
2023-01-29T01:15:40.439Z,0
2023-01-29T01:27:40.452Z,0
2023-01-29T01:39:40.481Z,0.8
2023-01-29T01:51:40.474Z,0
2023-01-29T02:03:40.456Z,0
2023-01-29T02:15:40.493Z,0
2023-01-29T02:27:40.484Z,0
2023-01-29T02:39:40.587Z,0
2023-01-29T02:51:40.612Z,0
2023-01-29T03:03:40.606Z,0
2023-01-29T03:15:40.631Z,0
2023-01-29T03:27:40.640Z,0
2023-01-29T03:39:40.672Z,0
2023-01-29T03:51:40.634Z,0
2023-01-29T04:03:40.655Z,0
2023-01-29T04:15:40.646Z,0
2023-01-29T04:27:40.658Z,0
2023-01-29T04:39:40.675Z,0
2023-01-29T04:51:40.657Z,0
2023-01-29T04:58:00.837Z,0
2023-01-29T05:10:02.174Z,0
2023-01-29T05:22:02.757Z,0
2023-01-29T05:34:03.433Z,0
2023-01-29T05:46:03.791Z,0
2023-01-29T05:58:05.852Z,0
2023-01-29T06:10:04.541Z,0
2023-01-29T06:22:03.759Z,0
2023-01-29T06:35:03.938Z,0
2023-01-29T06:48:03.911Z,0
2023-01-29T07:01:04.448Z,0.4
2023-01-29T07:15:04.507Z,0.6
2023-01-29T07:28:04.127Z,0.8
2023-01-29T07:41:04.943Z,0.8
2023-01-29T07:54:05.152Z,0
2023-01-29T08:07:04.735Z,0
2023-01-29T08:20:04.882Z,0
2023-01-29T08:33:04.912Z,0.6
2023-01-29T08:46:04.972Z,0.8
2023-01-29T08:59:05.335Z,0.8
2023-01-29T09:12:05.202Z,1.0
2023-01-29T09:25:05.261Z,0.7
2023-01-29T09:38:05.332Z,0.9
2023-01-29T09:51:05.459Z,0.8
2023-01-29T10:04:05.492Z,1.0
2023-01-29T10:17:05.575Z,0.6
2023-01-29T10:30:05.816Z,1.3
2023-01-29T10:43:05.649Z,1.1
2023-01-29T10:56:10.849Z,0.8
2023-01-29T11:10:05.838Z,1.1
2023-01-29T11:23:07.526Z,1.0
2023-01-29T11:36:05.875Z,1.1
2023-01-29T11:49:14.464Z,1.3
2023-01-29T12:02:05.963Z,0.8
2023-01-29T12:15:06.313Z,1.1
2023-01-29T12:28:08.485Z,0.9
2023-01-29T12:41:06.423Z,0.8
2023-01-29T12:54:06.642Z,0.7
2023-01-29T13:07:06.121Z,0.8
2023-01-29T13:20:06.543Z,0.6
2023-01-29T13:33:06.544Z,0.8
2023-01-29T13:46:06.565Z,1.1
2023-01-29T13:59:06.555Z,0.9
2023-01-29T14:12:06.264Z,0.7
2023-01-29T14:25:06.249Z,0.4
2023-01-29T14:38:06.593Z,0.9
2023-01-29T14:51:07.532Z,0.4
2023-01-29T15:05:06.710Z,0.8
2023-01-29T15:18:06.685Z,0.6
2023-01-29T15:31:06.498Z,0.2
2023-01-29T15:44:06.522Z,0.2
2023-01-29T15:58:06.841Z,0
2023-01-29T16:11:06.859Z,0
2023-01-29T16:24:06.882Z,0
2023-01-29T16:37:06.581Z,0
2023-01-29T16:50:06.575Z,0
2023-01-29T17:02:06.919Z,0
2023-01-29T17:14:06.945Z,0.8
2023-01-29T17:26:06.996Z,0.8
2023-01-29T17:38:09.350Z,0.8
2023-01-29T17:50:06.729Z,0
2023-01-29T18:02:06.784Z,0.6
2023-01-29T18:14:13.526Z,0.8
2023-01-29T18:26:06.715Z,0.6
2023-01-29T18:38:06.711Z,1.7
2023-01-29T18:50:06.689Z,0.8
2023-01-29T19:02:06.725Z,0
2023-01-29T19:14:06.800Z,0.6
2023-01-29T19:26:06.771Z,0
2023-01-29T19:38:06.793Z,0
2023-01-29T19:50:06.759Z,0
2023-01-29T20:02:06.845Z,0.8
2023-01-29T20:14:06.846Z,0.8
2023-01-29T20:26:06.882Z,0.8
2023-01-29T20:38:06.854Z,0.8
2023-01-29T20:50:06.921Z,0.8
2023-01-29T21:02:06.972Z,0.8
2023-01-29T21:14:06.952Z,0.6
2023-01-29T21:26:06.944Z,0.6
2023-01-29T21:38:06.976Z,0.8
2023-01-29T21:50:07.060Z,0.8
2023-01-29T22:02:07.060Z,0.8
2023-01-29T22:14:06.995Z,0.8
2023-01-29T22:26:07.007Z,0.8
2023-01-29T22:38:07.004Z,0.8
2023-01-29T22:50:07.111Z,0
2023-01-29T23:02:07.053Z,0.8
2023-01-29T23:14:07.053Z,0.8
2023-01-29T23:26:07.073Z,0
2023-01-29T23:38:07.074Z,0.8
2023-01-29T23:50:07.118Z,0
